sensor_id;sensor_type;location;lat;lon;timestamp;P1;durP1;ratioP1;P2;durP2;ratioP2
58928;SDS011;44713;53.378;10.022;2023-07-02T00:01:58;11.60;;;4.05;;
58928;SDS011;44713;53.378;10.022;2023-07-02T00:04:24;10.35;;;3.72;;
58928;SDS011;44713;53.378;10.022;2023-07-02T00:06:49;10.75;;;4.05;;
58928;SDS011;44713;53.378;10.022;2023-07-02T00:09:15;9.40;;;3.78;;
58928;SDS011;44713;53.378;10.022;2023-07-02T00:11:44;7.93;;;3.97;;
58928;SDS011;44713;53.378;10.022;2023-07-02T00:14:13;9.52;;;4.25;;
58928;SDS011;44713;53.378;10.022;2023-07-02T00:16:46;11.10;;;4.15;;
58928;SDS011;44713;53.378;10.022;2023-07-02T00:19:13;6.45;;;3.80;;
58928;SDS011;44713;53.378;10.022;2023-07-02T00:21:39;7.15;;;3.90;;
58928;SDS011;44713;53.378;10.022;2023-07-02T00:24:05;6.82;;;4.10;;
58928;SDS011;44713;53.378;10.022;2023-07-02T00:26:31;7.55;;;3.83;;
58928;SDS011;44713;53.378;10.022;2023-07-02T00:28:57;10.70;;;4.00;;
58928;SDS011;44713;53.378;10.022;2023-07-02T00:31:22;14.15;;;4.30;;
58928;SDS011;44713;53.378;10.022;2023-07-02T00:33:49;11.82;;;3.67;;
58928;SDS011;44713;53.378;10.022;2023-07-02T00:36:15;8.63;;;4.25;;
58928;SDS011;44713;53.378;10.022;2023-07-02T00:38:41;9.98;;;3.78;;
58928;SDS011;44713;53.378;10.022;2023-07-02T00:41:08;8.18;;;3.95;;
58928;SDS011;44713;53.378;10.022;2023-07-02T00:43:36;14.68;;;4.63;;
58928;SDS011;44713;53.378;10.022;2023-07-02T00:46:04;6.70;;;4.15;;
58928;SDS011;44713;53.378;10.022;2023-07-02T00:48:30;9.25;;;3.83;;
58928;SDS011;44713;53.378;10.022;2023-07-02T00:50:55;7.97;;;3.55;;
58928;SDS011;44713;53.378;10.022;2023-07-02T00:53:21;7.43;;;3.75;;
58928;SDS011;44713;53.378;10.022;2023-07-02T00:55:47;10.50;;;3.83;;
58928;SDS011;44713;53.378;10.022;2023-07-02T00:58:13;12.52;;;4.05;;
58928;SDS011;44713;53.378;10.022;2023-07-02T01:00:41;8.05;;;3.75;;
58928;SDS011;44713;53.378;10.022;2023-07-02T01:03:07;7.13;;;3.88;;
58928;SDS011;44713;53.378;10.022;2023-07-02T01:05:33;8.60;;;3.80;;
58928;SDS011;44713;53.378;10.022;2023-07-02T01:08:03;8.90;;;3.58;;
58928;SDS011;44713;53.378;10.022;2023-07-02T01:10:30;7.60;;;3.83;;
58928;SDS011;44713;53.378;10.022;2023-07-02T01:13:01;7.50;;;4.35;;
58928;SDS011;44713;53.378;10.022;2023-07-02T01:15:34;12.02;;;4.07;;
58928;SDS011;44713;53.378;10.022;2023-07-02T01:18:00;12.73;;;4.20;;
58928;SDS011;44713;53.378;10.022;2023-07-02T01:20:26;9.90;;;3.60;;
58928;SDS011;44713;53.378;10.022;2023-07-02T01:22:53;10.07;;;4.53;;
58928;SDS011;44713;53.378;10.022;2023-07-02T01:25:18;8.45;;;3.83;;
58928;SDS011;44713;53.378;10.022;2023-07-02T01:27:44;7.13;;;4.10;;
58928;SDS011;44713;53.378;10.022;2023-07-02T01:30:09;6.75;;;4.13;;
58928;SDS011;44713;53.378;10.022;2023-07-02T01:32:36;9.35;;;4.00;;
58928;SDS011;44713;53.378;10.022;2023-07-02T01:35:02;7.65;;;3.83;;
58928;SDS011;44713;53.378;10.022;2023-07-02T01:37:28;9.48;;;4.15;;
58928;SDS011;44713;53.378;10.022;2023-07-02T01:39:54;9.60;;;4.15;;
58928;SDS011;44713;53.378;10.022;2023-07-02T01:42:19;11.85;;;4.57;;
58928;SDS011;44713;53.378;10.022;2023-07-02T01:44:46;9.88;;;3.88;;
58928;SDS011;44713;53.378;10.022;2023-07-02T01:47:12;8.63;;;3.90;;
58928;SDS011;44713;53.378;10.022;2023-07-02T01:49:38;6.70;;;3.90;;
58928;SDS011;44713;53.378;10.022;2023-07-02T01:52:04;8.45;;;4.28;;
58928;SDS011;44713;53.378;10.022;2023-07-02T01:54:31;8.93;;;3.85;;
58928;SDS011;44713;53.378;10.022;2023-07-02T01:56:57;9.77;;;4.20;;
58928;SDS011;44713;53.378;10.022;2023-07-02T01:59:22;10.30;;;4.30;;
58928;SDS011;44713;53.378;10.022;2023-07-02T02:01:48;9.45;;;4.50;;
58928;SDS011;44713;53.378;10.022;2023-07-02T02:04:14;8.85;;;3.95;;
58928;SDS011;44713;53.378;10.022;2023-07-02T02:06:39;8.18;;;3.97;;
58928;SDS011;44713;53.378;10.022;2023-07-02T02:09:06;7.03;;;3.97;;
58928;SDS011;44713;53.378;10.022;2023-07-02T02:11:32;9.38;;;3.92;;
58928;SDS011;44713;53.378;10.022;2023-07-02T02:13:59;10.85;;;3.42;;
58928;SDS011;44713;53.378;10.022;2023-07-02T02:16:26;9.05;;;3.80;;
58928;SDS011;44713;53.378;10.022;2023-07-02T02:18:52;9.90;;;4.07;;
58928;SDS011;44713;53.378;10.022;2023-07-02T02:21:19;11.25;;;4.00;;
58928;SDS011;44713;53.378;10.022;2023-07-02T02:23:44;9.90;;;3.90;;
58928;SDS011;44713;53.378;10.022;2023-07-02T02:26:10;8.10;;;3.75;;
58928;SDS011;44713;53.378;10.022;2023-07-02T02:28:35;9.43;;;3.95;;
58928;SDS011;44713;53.378;10.022;2023-07-02T02:31:01;9.60;;;4.10;;
58928;SDS011;44713;53.378;10.022;2023-07-02T02:33:26;6.60;;;3.90;;
58928;SDS011;44713;53.378;10.022;2023-07-02T02:35:52;10.82;;;4.10;;
58928;SDS011;44713;53.378;10.022;2023-07-02T02:38:17;9.32;;;4.10;;
58928;SDS011;44713;53.378;10.022;2023-07-02T02:40:43;6.47;;;3.60;;
58928;SDS011;44713;53.378;10.022;2023-07-02T02:43:09;8.85;;;3.80;;
58928;SDS011;44713;53.378;10.022;2023-07-02T02:45:36;9.48;;;4.65;;
58928;SDS011;44713;53.378;10.022;2023-07-02T02:48:01;8.23;;;3.95;;
58928;SDS011;44713;53.378;10.022;2023-07-02T02:50:27;8.48;;;4.05;;
58928;SDS011;44713;53.378;10.022;2023-07-02T02:52:52;9.27;;;4.03;;
58928;SDS011;44713;53.378;10.022;2023-07-02T02:55:18;4.78;;;3.60;;
58928;SDS011;44713;53.378;10.022;2023-07-02T02:57:43;7.18;;;3.60;;
58928;SDS011;44713;53.378;10.022;2023-07-02T03:00:09;7.50;;;3.20;;
58928;SDS011;44713;53.378;10.022;2023-07-02T03:02:35;10.27;;;3.90;;
58928;SDS011;44713;53.378;10.022;2023-07-02T03:05:01;12.70;;;4.03;;
58928;SDS011;44713;53.378;10.022;2023-07-02T03:07:27;8.45;;;3.95;;
58928;SDS011;44713;53.378;10.022;2023-07-02T03:09:56;9.15;;;4.13;;
58928;SDS011;44713;53.378;10.022;2023-07-02T03:12:22;8.32;;;3.72;;
58928;SDS011;44713;53.378;10.022;2023-07-02T03:14:47;7.70;;;3.90;;
58928;SDS011;44713;53.378;10.022;2023-07-02T03:17:18;8.88;;;4.18;;
58928;SDS011;44713;53.378;10.022;2023-07-02T03:19:46;8.25;;;4.05;;
58928;SDS011;44713;53.378;10.022;2023-07-02T03:22:12;9.70;;;4.78;;
58928;SDS011;44713;53.378;10.022;2023-07-02T03:24:38;10.52;;;4.00;;
58928;SDS011;44713;53.378;10.022;2023-07-02T03:27:03;10.90;;;4.43;;
58928;SDS011;44713;53.378;10.022;2023-07-02T03:29:29;6.32;;;4.57;;
58928;SDS011;44713;53.378;10.022;2023-07-02T03:31:54;6.30;;;3.47;;
58928;SDS011;44713;53.378;10.022;2023-07-02T03:34:19;11.43;;;4.28;;
58928;SDS011;44713;53.378;10.022;2023-07-02T03:36:45;7.82;;;4.50;;
58928;SDS011;44713;53.378;10.022;2023-07-02T03:39:10;10.95;;;4.50;;
58928;SDS011;44713;53.378;10.022;2023-07-02T03:41:36;18.30;;;4.65;;
58928;SDS011;44713;53.378;10.022;2023-07-02T03:44:01;8.23;;;4.40;;
58928;SDS011;44713;53.378;10.022;2023-07-02T03:46:26;9.57;;;3.90;;
58928;SDS011;44713;53.378;10.022;2023-07-02T03:48:51;10.02;;;4.72;;
58928;SDS011;44713;53.378;10.022;2023-07-02T03:51:17;7.88;;;4.10;;
58928;SDS011;44713;53.378;10.022;2023-07-02T03:53:42;11.13;;;4.00;;
58928;SDS011;44713;53.378;10.022;2023-07-02T03:56:08;9.98;;;4.40;;
58928;SDS011;44713;53.378;10.022;2023-07-02T03:58:33;10.05;;;4.43;;
58928;SDS011;44713;53.378;10.022;2023-07-02T04:00:59;16.00;;;5.00;;
58928;SDS011;44713;53.378;10.022;2023-07-02T04:03:24;5.18;;;3.90;;
58928;SDS011;44713;53.378;10.022;2023-07-02T04:05:50;11.88;;;4.90;;
58928;SDS011;44713;53.378;10.022;2023-07-02T04:08:15;12.48;;;4.63;;
58928;SDS011;44713;53.378;10.022;2023-07-02T04:10:41;10.35;;;4.70;;
58928;SDS011;44713;53.378;10.022;2023-07-02T04:13:06;10.35;;;4.57;;
58928;SDS011;44713;53.378;10.022;2023-07-02T04:15:32;9.88;;;4.85;;
58928;SDS011;44713;53.378;10.022;2023-07-02T04:17:57;11.50;;;5.00;;
58928;SDS011;44713;53.378;10.022;2023-07-02T04:20:23;11.18;;;5.30;;
58928;SDS011;44713;53.378;10.022;2023-07-02T04:22:48;15.50;;;5.30;;
58928;SDS011;44713;53.378;10.022;2023-07-02T04:25:14;12.27;;;4.97;;
58928;SDS011;44713;53.378;10.022;2023-07-02T04:27:43;12.63;;;5.38;;
58928;SDS011;44713;53.378;10.022;2023-07-02T04:30:09;9.95;;;4.97;;
58928;SDS011;44713;53.378;10.022;2023-07-02T04:32:38;12.30;;;4.97;;
58928;SDS011;44713;53.378;10.022;2023-07-02T04:35:06;13.75;;;5.47;;
58928;SDS011;44713;53.378;10.022;2023-07-02T04:37:36;17.83;;;6.43;;
58928;SDS011;44713;53.378;10.022;2023-07-02T04:40:02;16.10;;;5.88;;
58928;SDS011;44713;53.378;10.022;2023-07-02T04:42:37;13.45;;;5.93;;
58928;SDS011;44713;53.378;10.022;2023-07-02T04:45:07;14.82;;;5.43;;
58928;SDS011;44713;53.378;10.022;2023-07-02T04:47:36;11.43;;;5.55;;
58928;SDS011;44713;53.378;10.022;2023-07-02T04:50:01;15.65;;;6.28;;
58928;SDS011;44713;53.378;10.022;2023-07-02T04:52:27;19.90;;;6.03;;
58928;SDS011;44713;53.378;10.022;2023-07-02T04:54:52;13.35;;;5.50;;
58928;SDS011;44713;53.378;10.022;2023-07-02T04:57:18;16.38;;;6.18;;
58928;SDS011;44713;53.378;10.022;2023-07-02T04:59:43;15.63;;;5.70;;
58928;SDS011;44713;53.378;10.022;2023-07-02T05:02:09;16.30;;;6.35;;
58928;SDS011;44713;53.378;10.022;2023-07-02T05:04:35;16.60;;;6.32;;
58928;SDS011;44713;53.378;10.022;2023-07-02T05:07:02;17.13;;;6.28;;
58928;SDS011;44713;53.378;10.022;2023-07-02T05:09:28;17.45;;;6.50;;
58928;SDS011;44713;53.378;10.022;2023-07-02T05:11:54;17.27;;;6.20;;
58928;SDS011;44713;53.378;10.022;2023-07-02T05:14:19;15.57;;;6.10;;
58928;SDS011;44713;53.378;10.022;2023-07-02T05:16:44;20.25;;;6.30;;
58928;SDS011;44713;53.378;10.022;2023-07-02T05:19:10;17.88;;;6.25;;
58928;SDS011;44713;53.378;10.022;2023-07-02T05:21:35;23.05;;;7.10;;
58928;SDS011;44713;53.378;10.022;2023-07-02T05:24:00;27.60;;;6.88;;
58928;SDS011;44713;53.378;10.022;2023-07-02T05:26:26;22.42;;;7.53;;
58928;SDS011;44713;53.378;10.022;2023-07-02T05:28:52;27.25;;;7.07;;
58928;SDS011;44713;53.378;10.022;2023-07-02T05:31:17;24.88;;;6.70;;
58928;SDS011;44713;53.378;10.022;2023-07-02T05:33:43;20.65;;;7.00;;
58928;SDS011;44713;53.378;10.022;2023-07-02T05:36:08;22.55;;;7.60;;
58928;SDS011;44713;53.378;10.022;2023-07-02T05:38:34;20.38;;;6.75;;
58928;SDS011;44713;53.378;10.022;2023-07-02T05:40:59;18.95;;;7.13;;
58928;SDS011;44713;53.378;10.022;2023-07-02T05:43:24;21.77;;;7.15;;
58928;SDS011;44713;53.378;10.022;2023-07-02T05:45:50;25.75;;;7.47;;
58928;SDS011;44713;53.378;10.022;2023-07-02T05:48:16;26.10;;;7.07;;
58928;SDS011;44713;53.378;10.022;2023-07-02T05:50:41;22.13;;;7.10;;
58928;SDS011;44713;53.378;10.022;2023-07-02T05:53:07;21.80;;;6.95;;
58928;SDS011;44713;53.378;10.022;2023-07-02T05:55:34;26.75;;;8.23;;
58928;SDS011;44713;53.378;10.022;2023-07-02T05:57:59;23.60;;;7.50;;
58928;SDS011;44713;53.378;10.022;2023-07-02T06:00:26;23.85;;;8.25;;
58928;SDS011;44713;53.378;10.022;2023-07-02T06:02:52;22.77;;;7.63;;
58928;SDS011;44713;53.378;10.022;2023-07-02T06:05:17;22.27;;;7.45;;
58928;SDS011;44713;53.378;10.022;2023-07-02T06:07:43;22.38;;;8.32;;
58928;SDS011;44713;53.378;10.022;2023-07-02T06:10:08;19.38;;;7.57;;
58928;SDS011;44713;53.378;10.022;2023-07-02T06:12:35;25.08;;;7.97;;
58928;SDS011;44713;53.378;10.022;2023-07-02T06:15:02;25.48;;;7.68;;
58928;SDS011;44713;53.378;10.022;2023-07-02T06:17:27;21.52;;;7.82;;
58928;SDS011;44713;53.378;10.022;2023-07-02T06:19:55;26.02;;;8.02;;
58928;SDS011;44713;53.378;10.022;2023-07-02T06:22:21;27.27;;;9.15;;
58928;SDS011;44713;53.378;10.022;2023-07-02T06:24:46;22.77;;;7.97;;
58928;SDS011;44713;53.378;10.022;2023-07-02T06:27:12;22.48;;;8.25;;
58928;SDS011;44713;53.378;10.022;2023-07-02T06:29:37;30.60;;;8.27;;
58928;SDS011;44713;53.378;10.022;2023-07-02T06:32:02;25.42;;;8.15;;
58928;SDS011;44713;53.378;10.022;2023-07-02T06:34:28;28.08;;;7.85;;
58928;SDS011;44713;53.378;10.022;2023-07-02T06:36:53;23.50;;;8.63;;
58928;SDS011;44713;53.378;10.022;2023-07-02T06:39:19;26.35;;;9.35;;
58928;SDS011;44713;53.378;10.022;2023-07-02T06:41:44;24.73;;;8.35;;
58928;SDS011;44713;53.378;10.022;2023-07-02T06:44:10;30.05;;;9.00;;
58928;SDS011;44713;53.378;10.022;2023-07-02T06:46:35;26.52;;;8.60;;
58928;SDS011;44713;53.378;10.022;2023-07-02T06:49:01;21.73;;;8.55;;
58928;SDS011;44713;53.378;10.022;2023-07-02T06:51:26;24.73;;;8.43;;
58928;SDS011;44713;53.378;10.022;2023-07-02T06:53:54;25.05;;;9.32;;
58928;SDS011;44713;53.378;10.022;2023-07-02T06:56:19;24.55;;;8.60;;
58928;SDS011;44713;53.378;10.022;2023-07-02T06:58:45;25.73;;;8.38;;
58928;SDS011;44713;53.378;10.022;2023-07-02T07:01:10;32.78;;;8.68;;
58928;SDS011;44713;53.378;10.022;2023-07-02T07:03:36;21.02;;;7.55;;
58928;SDS011;44713;53.378;10.022;2023-07-02T07:06:01;24.50;;;8.25;;
58928;SDS011;44713;53.378;10.022;2023-07-02T07:08:27;25.75;;;7.82;;
58928;SDS011;44713;53.378;10.022;2023-07-02T07:10:53;24.77;;;8.68;;
58928;SDS011;44713;53.378;10.022;2023-07-02T07:13:18;22.33;;;7.82;;
58928;SDS011;44713;53.378;10.022;2023-07-02T07:15:43;36.90;;;9.02;;
58928;SDS011;44713;53.378;10.022;2023-07-02T07:18:09;27.23;;;8.77;;
58928;SDS011;44713;53.378;10.022;2023-07-02T07:20:35;29.05;;;8.55;;
58928;SDS011;44713;53.378;10.022;2023-07-02T07:23:01;24.63;;;8.23;;
58928;SDS011;44713;53.378;10.022;2023-07-02T07:25:27;20.33;;;7.50;;
58928;SDS011;44713;53.378;10.022;2023-07-02T07:27:53;22.30;;;8.20;;
58928;SDS011;44713;53.378;10.022;2023-07-02T07:30:18;21.70;;;7.97;;
58928;SDS011;44713;53.378;10.022;2023-07-02T07:32:48;24.17;;;7.75;;
58928;SDS011;44713;53.378;10.022;2023-07-02T07:35:17;20.05;;;7.82;;
58928;SDS011;44713;53.378;10.022;2023-07-02T07:37:43;26.23;;;9.07;;
58928;SDS011;44713;53.378;10.022;2023-07-02T07:40:09;18.95;;;7.53;;
58928;SDS011;44713;53.378;10.022;2023-07-02T07:42:35;22.80;;;7.85;;
58928;SDS011;44713;53.378;10.022;2023-07-02T07:45:01;24.63;;;7.55;;
58928;SDS011;44713;53.378;10.022;2023-07-02T07:47:27;21.92;;;8.18;;
58928;SDS011;44713;53.378;10.022;2023-07-02T07:49:53;22.55;;;8.35;;
58928;SDS011;44713;53.378;10.022;2023-07-02T07:52:19;21.02;;;7.93;;
58928;SDS011;44713;53.378;10.022;2023-07-02T07:54:45;24.45;;;7.28;;
58928;SDS011;44713;53.378;10.022;2023-07-02T07:57:10;23.33;;;7.75;;
58928;SDS011;44713;53.378;10.022;2023-07-02T07:59:35;24.83;;;8.02;;
58928;SDS011;44713;53.378;10.022;2023-07-02T08:02:01;22.20;;;8.90;;
58928;SDS011;44713;53.378;10.022;2023-07-02T08:04:26;16.52;;;7.32;;
58928;SDS011;44713;53.378;10.022;2023-07-02T08:06:52;19.38;;;6.95;;
58928;SDS011;44713;53.378;10.022;2023-07-02T08:09:17;20.63;;;7.32;;
58928;SDS011;44713;53.378;10.022;2023-07-02T08:11:42;23.35;;;7.45;;
58928;SDS011;44713;53.378;10.022;2023-07-02T08:14:09;16.70;;;7.15;;
58928;SDS011;44713;53.378;10.022;2023-07-02T08:16:34;15.75;;;6.90;;
58928;SDS011;44713;53.378;10.022;2023-07-02T08:19:00;15.98;;;6.85;;
58928;SDS011;44713;53.378;10.022;2023-07-02T08:21:26;20.00;;;6.82;;
58928;SDS011;44713;53.378;10.022;2023-07-02T08:23:51;24.13;;;7.05;;
58928;SDS011;44713;53.378;10.022;2023-07-02T08:26:17;18.15;;;6.63;;
58928;SDS011;44713;53.378;10.022;2023-07-02T08:28:42;23.40;;;6.22;;
58928;SDS011;44713;53.378;10.022;2023-07-02T08:31:07;21.92;;;7.57;;
58928;SDS011;44713;53.378;10.022;2023-07-02T08:33:33;19.02;;;6.30;;
58928;SDS011;44713;53.378;10.022;2023-07-02T08:35:58;15.55;;;6.10;;
58928;SDS011;44713;53.378;10.022;2023-07-02T08:38:25;18.48;;;6.88;;
58928;SDS011;44713;53.378;10.022;2023-07-02T08:40:51;16.58;;;5.55;;
58928;SDS011;44713;53.378;10.022;2023-07-02T08:43:16;16.65;;;6.20;;
58928;SDS011;44713;53.378;10.022;2023-07-02T08:45:42;20.65;;;6.32;;
58928;SDS011;44713;53.378;10.022;2023-07-02T08:48:08;18.98;;;6.30;;
58928;SDS011;44713;53.378;10.022;2023-07-02T08:50:33;13.55;;;5.70;;
58928;SDS011;44713;53.378;10.022;2023-07-02T08:52:59;14.05;;;5.78;;
58928;SDS011;44713;53.378;10.022;2023-07-02T08:55:24;16.08;;;5.90;;
58928;SDS011;44713;53.378;10.022;2023-07-02T08:57:53;12.15;;;5.78;;
58928;SDS011;44713;53.378;10.022;2023-07-02T09:00:19;17.90;;;5.72;;
58928;SDS011;44713;53.378;10.022;2023-07-02T09:02:46;20.95;;;6.65;;
58928;SDS011;44713;53.378;10.022;2023-07-02T09:05:12;13.80;;;5.57;;
58928;SDS011;44713;53.378;10.022;2023-07-02T09:07:47;10.23;;;5.15;;
58928;SDS011;44713;53.378;10.022;2023-07-02T09:10:29;13.32;;;5.88;;
58928;SDS011;44713;53.378;10.022;2023-07-02T09:13:02;17.63;;;5.15;;
58928;SDS011;44713;53.378;10.022;2023-07-02T09:15:41;19.33;;;5.75;;
58928;SDS011;44713;53.378;10.022;2023-07-02T09:18:24;15.07;;;5.63;;
58928;SDS011;44713;53.378;10.022;2023-07-02T09:20:58;22.48;;;5.85;;
58928;SDS011;44713;53.378;10.022;2023-07-02T09:23:31;14.82;;;5.95;;
58928;SDS011;44713;53.378;10.022;2023-07-02T09:26:00;15.95;;;5.43;;
58928;SDS011;44713;53.378;10.022;2023-07-02T09:28:25;18.33;;;6.53;;
58928;SDS011;44713;53.378;10.022;2023-07-02T09:30:51;17.95;;;6.13;;
58928;SDS011;44713;53.378;10.022;2023-07-02T09:33:21;13.70;;;5.80;;
58928;SDS011;44713;53.378;10.022;2023-07-02T09:35:48;13.50;;;5.75;;
58928;SDS011;44713;53.378;10.022;2023-07-02T09:38:15;15.57;;;5.88;;
58928;SDS011;44713;53.378;10.022;2023-07-02T09:40:47;13.68;;;5.90;;
58928;SDS011;44713;53.378;10.022;2023-07-02T09:43:15;14.85;;;5.80;;
58928;SDS011;44713;53.378;10.022;2023-07-02T09:45:48;14.00;;;5.55;;
58928;SDS011;44713;53.378;10.022;2023-07-02T09:48:16;17.70;;;5.63;;
58928;SDS011;44713;53.378;10.022;2023-07-02T09:50:43;13.18;;;5.55;;
58928;SDS011;44713;53.378;10.022;2023-07-02T09:53:10;13.73;;;5.47;;
58928;SDS011;44713;53.378;10.022;2023-07-02T09:55:36;14.98;;;5.57;;
58928;SDS011;44713;53.378;10.022;2023-07-02T09:58:03;20.30;;;6.25;;
58928;SDS011;44713;53.378;10.022;2023-07-02T10:00:28;14.50;;;5.20;;
58928;SDS011;44713;53.378;10.022;2023-07-02T10:02:54;15.02;;;5.43;;
58928;SDS011;44713;53.378;10.022;2023-07-02T10:05:26;13.57;;;5.13;;
58928;SDS011;44713;53.378;10.022;2023-07-02T10:07:53;20.08;;;5.10;;
58928;SDS011;44713;53.378;10.022;2023-07-02T10:10:28;11.52;;;4.80;;
58928;SDS011;44713;53.378;10.022;2023-07-02T10:12:55;11.50;;;4.30;;
58928;SDS011;44713;53.378;10.022;2023-07-02T10:15:25;13.95;;;4.70;;
58928;SDS011;44713;53.378;10.022;2023-07-02T10:17:55;12.45;;;5.28;;
58928;SDS011;44713;53.378;10.022;2023-07-02T10:20:30;11.68;;;4.80;;
58928;SDS011;44713;53.378;10.022;2023-07-02T10:22:59;9.05;;;4.10;;
58928;SDS011;44713;53.378;10.022;2023-07-02T10:25:33;12.05;;;4.78;;
58928;SDS011;44713;53.378;10.022;2023-07-02T10:28:13;12.70;;;4.03;;
58928;SDS011;44713;53.378;10.022;2023-07-02T10:30:39;11.63;;;4.80;;
58928;SDS011;44713;53.378;10.022;2023-07-02T10:33:14;12.25;;;4.43;;
58928;SDS011;44713;53.378;10.022;2023-07-02T10:35:42;11.68;;;4.53;;
58928;SDS011;44713;53.378;10.022;2023-07-02T10:38:19;8.73;;;4.50;;
58928;SDS011;44713;53.378;10.022;2023-07-02T10:40:58;11.43;;;4.25;;
58928;SDS011;44713;53.378;10.022;2023-07-02T10:43:30;13.65;;;4.15;;
58928;SDS011;44713;53.378;10.022;2023-07-02T10:45:57;10.48;;;3.95;;
58928;SDS011;44713;53.378;10.022;2023-07-02T10:48:25;9.95;;;3.53;;
58928;SDS011;44713;53.378;10.022;2023-07-02T10:50:50;9.77;;;3.83;;
58928;SDS011;44713;53.378;10.022;2023-07-02T10:53:16;11.65;;;4.00;;
58928;SDS011;44713;53.378;10.022;2023-07-02T10:55:42;15.93;;;4.05;;
58928;SDS011;44713;53.378;10.022;2023-07-02T10:58:09;9.35;;;3.58;;
58928;SDS011;44713;53.378;10.022;2023-07-02T11:00:51;11.27;;;4.15;;
58928;SDS011;44713;53.378;10.022;2023-07-02T11:05:46;10.63;;;3.95;;
58928;SDS011;44713;53.378;10.022;2023-07-02T11:08:12;11.85;;;4.82;;
58928;SDS011;44713;53.378;10.022;2023-07-02T11:10:37;10.20;;;3.72;;
58928;SDS011;44713;53.378;10.022;2023-07-02T11:13:12;10.13;;;3.28;;
58928;SDS011;44713;53.378;10.022;2023-07-02T11:15:39;9.02;;;4.15;;
58928;SDS011;44713;53.378;10.022;2023-07-02T11:18:13;14.43;;;3.97;;
58928;SDS011;44713;53.378;10.022;2023-07-02T11:20:40;12.13;;;4.43;;
58928;SDS011;44713;53.378;10.022;2023-07-02T11:23:17;11.63;;;4.90;;
58928;SDS011;44713;53.378;10.022;2023-07-02T11:25:58;14.07;;;4.63;;
58928;SDS011;44713;53.378;10.022;2023-07-02T11:28:25;10.35;;;4.32;;
58928;SDS011;44713;53.378;10.022;2023-07-02T11:30:52;10.18;;;4.50;;
58928;SDS011;44713;53.378;10.022;2023-07-02T11:33:17;11.07;;;4.68;;
58928;SDS011;44713;53.378;10.022;2023-07-02T11:35:43;8.30;;;4.05;;
58928;SDS011;44713;53.378;10.022;2023-07-02T11:38:09;14.32;;;4.47;;
58928;SDS011;44713;53.378;10.022;2023-07-02T11:40:35;15.02;;;4.13;;
58928;SDS011;44713;53.378;10.022;2023-07-02T11:43:01;8.63;;;3.88;;
58928;SDS011;44713;53.378;10.022;2023-07-02T11:45:27;5.85;;;3.00;;
58928;SDS011;44713;53.378;10.022;2023-07-02T11:47:53;8.35;;;3.40;;
58928;SDS011;44713;53.378;10.022;2023-07-02T11:50:18;6.22;;;3.17;;
58928;SDS011;44713;53.378;10.022;2023-07-02T11:52:43;8.18;;;3.15;;
58928;SDS011;44713;53.378;10.022;2023-07-02T11:55:09;6.93;;;2.63;;
58928;SDS011;44713;53.378;10.022;2023-07-02T11:57:34;5.82;;;2.67;;
58928;SDS011;44713;53.378;10.022;2023-07-02T11:59:59;7.75;;;3.00;;
58928;SDS011;44713;53.378;10.022;2023-07-02T12:02:25;8.48;;;2.90;;
58928;SDS011;44713;53.378;10.022;2023-07-02T12:04:50;9.65;;;2.80;;
58928;SDS011;44713;53.378;10.022;2023-07-02T12:07:15;8.98;;;2.47;;
58928;SDS011;44713;53.378;10.022;2023-07-02T12:09:41;5.95;;;2.40;;
58928;SDS011;44713;53.378;10.022;2023-07-02T12:12:06;7.07;;;2.58;;
58928;SDS011;44713;53.378;10.022;2023-07-02T12:14:32;6.57;;;2.58;;
58928;SDS011;44713;53.378;10.022;2023-07-02T12:16:57;7.95;;;2.45;;
58928;SDS011;44713;53.378;10.022;2023-07-02T12:19:23;6.25;;;2.60;;
58928;SDS011;44713;53.378;10.022;2023-07-02T12:21:48;5.15;;;2.63;;
58928;SDS011;44713;53.378;10.022;2023-07-02T12:24:13;7.00;;;2.65;;
58928;SDS011;44713;53.378;10.022;2023-07-02T12:26:39;9.07;;;2.60;;
58928;SDS011;44713;53.378;10.022;2023-07-02T12:29:06;12.48;;;2.60;;
58928;SDS011;44713;53.378;10.022;2023-07-02T12:31:32;11.18;;;2.72;;
58928;SDS011;44713;53.378;10.022;2023-07-02T12:33:57;9.93;;;2.50;;
58928;SDS011;44713;53.378;10.022;2023-07-02T12:36:23;7.72;;;2.45;;
58928;SDS011;44713;53.378;10.022;2023-07-02T12:38:48;10.25;;;2.40;;
58928;SDS011;44713;53.378;10.022;2023-07-02T12:41:14;9.70;;;2.35;;
58928;SDS011;44713;53.378;10.022;2023-07-02T12:43:39;9.27;;;2.63;;
58928;SDS011;44713;53.378;10.022;2023-07-02T12:46:05;10.98;;;2.97;;
58928;SDS011;44713;53.378;10.022;2023-07-02T12:48:31;10.23;;;2.40;;
58928;SDS011;44713;53.378;10.022;2023-07-02T12:50:57;10.52;;;3.03;;
58928;SDS011;44713;53.378;10.022;2023-07-02T12:53:24;5.97;;;2.15;;
58928;SDS011;44713;53.378;10.022;2023-07-02T12:55:50;5.95;;;2.20;;
58928;SDS011;44713;53.378;10.022;2023-07-02T12:58:15;9.70;;;2.58;;
58928;SDS011;44713;53.378;10.022;2023-07-02T13:00:41;8.00;;;2.22;;
58928;SDS011;44713;53.378;10.022;2023-07-02T13:03:09;8.60;;;2.58;;
58928;SDS011;44713;53.378;10.022;2023-07-02T13:05:36;11.80;;;2.83;;
58928;SDS011;44713;53.378;10.022;2023-07-02T13:08:01;7.35;;;2.00;;
58928;SDS011;44713;53.378;10.022;2023-07-02T13:10:28;7.70;;;2.67;;
58928;SDS011;44713;53.378;10.022;2023-07-02T13:12:54;6.32;;;2.30;;
58928;SDS011;44713;53.378;10.022;2023-07-02T13:15:20;9.18;;;2.80;;
58928;SDS011;44713;53.378;10.022;2023-07-02T13:17:45;5.60;;;2.42;;
58928;SDS011;44713;53.378;10.022;2023-07-02T13:20:10;7.85;;;2.70;;
58928;SDS011;44713;53.378;10.022;2023-07-02T13:22:36;7.43;;;2.60;;
58928;SDS011;44713;53.378;10.022;2023-07-02T13:25:02;6.82;;;3.00;;
58928;SDS011;44713;53.378;10.022;2023-07-02T13:27:28;10.40;;;2.70;;
58928;SDS011;44713;53.378;10.022;2023-07-02T13:29:53;14.00;;;2.70;;
58928;SDS011;44713;53.378;10.022;2023-07-02T13:32:18;10.57;;;2.85;;
58928;SDS011;44713;53.378;10.022;2023-07-02T13:34:44;6.53;;;2.63;;
58928;SDS011;44713;53.378;10.022;2023-07-02T13:37:09;5.63;;;3.13;;
58928;SDS011;44713;53.378;10.022;2023-07-02T13:39:37;11.90;;;2.90;;
58928;SDS011;44713;53.378;10.022;2023-07-02T13:42:03;10.75;;;3.00;;
58928;SDS011;44713;53.378;10.022;2023-07-02T13:44:29;9.75;;;3.05;;
58928;SDS011;44713;53.378;10.022;2023-07-02T13:46:54;16.40;;;2.60;;
58928;SDS011;44713;53.378;10.022;2023-07-02T13:49:19;14.73;;;2.85;;
58928;SDS011;44713;53.378;10.022;2023-07-02T13:51:46;6.10;;;2.50;;
58928;SDS011;44713;53.378;10.022;2023-07-02T13:54:12;8.25;;;2.50;;
58928;SDS011;44713;53.378;10.022;2023-07-02T13:56:39;10.63;;;2.65;;
58928;SDS011;44713;53.378;10.022;2023-07-02T13:59:05;7.45;;;2.67;;
58928;SDS011;44713;53.378;10.022;2023-07-02T14:01:31;10.65;;;2.78;;
58928;SDS011;44713;53.378;10.022;2023-07-02T14:03:57;7.68;;;2.58;;
58928;SDS011;44713;53.378;10.022;2023-07-02T14:06:23;7.63;;;2.70;;
58928;SDS011;44713;53.378;10.022;2023-07-02T14:08:48;8.63;;;2.45;;
58928;SDS011;44713;53.378;10.022;2023-07-02T14:11:14;17.92;;;3.00;;
58928;SDS011;44713;53.378;10.022;2023-07-02T14:13:39;8.48;;;3.00;;
58928;SDS011;44713;53.378;10.022;2023-07-02T14:16:05;9.07;;;2.72;;
58928;SDS011;44713;53.378;10.022;2023-07-02T14:18:30;8.85;;;3.33;;
58928;SDS011;44713;53.378;10.022;2023-07-02T14:20:56;7.63;;;2.53;;
58928;SDS011;44713;53.378;10.022;2023-07-02T14:23:21;8.82;;;2.88;;
58928;SDS011;44713;53.378;10.022;2023-07-02T14:25:46;9.63;;;3.72;;